createdAt,value
2022-10-14T00:01:09.607Z,13.97
2022-10-14T00:03:37.799Z,11.07
2022-10-14T00:06:05.976Z,13.27
2022-10-14T00:08:33.237Z,10.97
2022-10-14T00:11:04.522Z,13.33
2022-10-14T00:13:33.690Z,15.27
2022-10-14T00:16:08.328Z,13.43
2022-10-14T00:18:40.755Z,15.63
2022-10-14T00:21:08.090Z,16.73
2022-10-14T00:23:35.826Z,14.97
2022-10-14T00:26:03.070Z,17.20
2022-10-14T00:28:31.004Z,17.00
2022-10-14T00:31:00.617Z,17.57
2022-10-14T00:33:28.149Z,17.90
2022-10-14T00:35:58.391Z,15.40
2022-10-14T00:38:31.487Z,18.97
2022-10-14T00:40:58.794Z,20.07
2022-10-14T00:43:26.637Z,19.07
2022-10-14T00:45:56.623Z,15.87
2022-10-14T00:48:27.136Z,20.73
2022-10-14T00:50:57.410Z,22.30
2022-10-14T00:53:24.898Z,22.63
2022-10-14T00:55:53.922Z,22.27
2022-10-14T00:58:24.043Z,23.33
2022-10-14T01:00:51.509Z,23.53
2022-10-14T01:03:19.659Z,21.67
2022-10-14T01:05:52.768Z,24.13
2022-10-14T01:08:23.742Z,22.73
2022-10-14T01:10:54.326Z,21.47
2022-10-14T01:13:25.901Z,21.87
2022-10-14T01:16:05.289Z,23.23
2022-10-14T01:18:39.351Z,23.00
2022-10-14T01:21:12.418Z,17.20
2022-10-14T01:23:47.039Z,22.57
2022-10-14T01:26:25.983Z,25.97
2022-10-14T01:29:00.908Z,23.27
2022-10-14T01:31:31.535Z,23.00
2022-10-14T01:34:00.630Z,21.87
2022-10-14T01:36:31.235Z,24.00
2022-10-14T01:39:01.561Z,22.67
2022-10-14T01:41:31.175Z,23.60
2022-10-14T01:44:04.051Z,19.37
2022-10-14T01:46:35.620Z,24.00
2022-10-14T01:49:07.898Z,22.97
2022-10-14T01:51:39.146Z,24.27
2022-10-14T01:54:10.385Z,21.93
2022-10-14T01:56:40.515Z,19.03
2022-10-14T01:59:10.446Z,27.33
2022-10-14T02:01:39.141Z,24.60
2022-10-14T02:04:14.709Z,24.47
2022-10-14T02:06:43.978Z,26.27
2022-10-14T02:09:16.141Z,25.90
2022-10-14T02:11:49.458Z,27.60
2022-10-14T02:14:28.526Z,21.73
2022-10-14T02:17:06.217Z,21.07
2022-10-14T02:19:37.266Z,24.53
2022-10-14T02:22:08.409Z,25.00
2022-10-14T02:24:37.097Z,25.90
2022-10-14T02:27:06.347Z,31.13
2022-10-14T02:29:34.366Z,30.70
2022-10-14T02:32:03.655Z,24.03
2022-10-14T02:34:32.371Z,31.03
2022-10-14T02:37:00.289Z,33.03
2022-10-14T02:39:32.915Z,32.00
2022-10-14T02:42:00.298Z,30.83
2022-10-14T02:44:27.545Z,27.27
2022-10-14T02:47:03.866Z,22.77
2022-10-14T02:49:46.155Z,29.33
2022-10-14T02:52:14.792Z,24.47
2022-10-14T02:54:41.965Z,23.77
2022-10-14T02:57:09.279Z,28.90
2022-10-14T02:59:36.626Z,29.73
2022-10-14T03:02:05.134Z,34.73
2022-10-14T03:04:33.142Z,27.50
2022-10-14T03:07:00.626Z,29.90
2022-10-14T03:09:29.353Z,31.67
2022-10-14T03:11:58.565Z,25.20
2022-10-14T03:14:26.025Z,34.40
2022-10-14T03:16:54.014Z,30.03
2022-10-14T03:19:24.779Z,31.37
2022-10-14T03:21:54.944Z,31.50
2022-10-14T03:24:22.609Z,26.27
2022-10-14T03:27:07.433Z,31.40
2022-10-14T03:29:34.740Z,34.60
2022-10-14T03:32:12.682Z,34.33
2022-10-14T03:35:09.328Z,38.03
2022-10-14T03:37:36.603Z,33.27
2022-10-14T03:40:05.116Z,32.37
2022-10-14T03:42:35.773Z,27.97
2022-10-14T03:45:03.522Z,38.73
2022-10-14T03:47:32.494Z,34.70
2022-10-14T03:50:01.122Z,37.90
2022-10-14T03:52:34.702Z,37.07
2022-10-14T03:55:07.429Z,25.87
2022-10-14T03:57:36.854Z,36.50
2022-10-14T04:00:06.450Z,28.63
2022-10-14T04:02:42.488Z,32.63
2022-10-14T04:05:23.488Z,33.93
2022-10-14T04:07:51.492Z,39.53
2022-10-14T04:10:18.761Z,32.80
2022-10-14T04:12:53.504Z,27.90
2022-10-14T04:15:40.198Z,32.83
2022-10-14T04:18:25.068Z,32.67
2022-10-14T04:20:55.740Z,32.90
2022-10-14T04:23:25.410Z,32.00
2022-10-14T04:25:57.215Z,32.07
2022-10-14T04:28:27.043Z,31.63
2022-10-14T04:31:00.801Z,27.60
2022-10-14T04:33:34.353Z,24.00
2022-10-14T04:36:09.947Z,28.50
2022-10-14T04:38:40.626Z,28.33
2022-10-14T04:41:10.139Z,27.77
2022-10-14T04:43:52.200Z,26.90
2022-10-14T04:46:45.659Z,26.10
2022-10-14T04:49:13.333Z,24.87
2022-10-14T04:51:49.155Z,22.17
2022-10-14T04:54:22.556Z,23.20
2022-10-14T04:56:53.359Z,23.47
2022-10-14T04:59:21.974Z,24.97
2022-10-14T05:01:58.016Z,19.73
2022-10-14T05:04:34.003Z,17.47
2022-10-14T05:07:01.872Z,21.27
2022-10-14T05:09:29.726Z,17.63
2022-10-14T05:11:58.338Z,19.93
2022-10-14T05:14:36.562Z,17.70
2022-10-14T05:17:42.309Z,16.10
2022-10-14T05:20:10.149Z,13.27
2022-10-14T05:22:38.807Z,15.00
2022-10-14T05:25:06.498Z,14.37
2022-10-14T05:27:34.118Z,16.57
2022-10-14T05:30:04.951Z,14.80
2022-10-14T06:28:06.973Z,17.00
2022-10-14T06:30:34.267Z,21.63
2022-10-14T06:33:01.452Z,31.20
2022-10-14T06:35:28.671Z,25.33
2022-10-14T06:37:57.031Z,36.00
2022-10-14T06:40:24.234Z,35.77
2022-10-14T06:42:51.478Z,28.53
2022-10-14T06:45:20.039Z,32.00
2022-10-14T06:47:47.369Z,28.57
2022-10-14T06:50:14.622Z,23.07
2022-10-14T06:52:41.825Z,39.17
2022-10-14T06:55:09.140Z,30.93
2022-10-14T06:57:36.306Z,34.80
2022-10-14T07:00:03.607Z,41.90
2022-10-14T07:02:32.142Z,33.53
2022-10-14T07:04:59.508Z,33.73
2022-10-14T07:07:26.722Z,39.80
2022-10-14T07:09:53.955Z,28.27
2022-10-14T07:12:21.926Z,35.27
2022-10-14T07:14:49.203Z,29.10
2022-10-14T07:17:16.488Z,26.17
2022-10-14T07:19:45.046Z,30.67
2022-10-14T07:22:12.270Z,32.77
2022-10-14T07:24:39.450Z,30.80
2022-10-14T07:27:08.857Z,28.90
2022-10-14T07:29:36.119Z,26.27
2022-10-14T07:32:03.646Z,28.97
2022-10-14T07:34:30.833Z,27.57
2022-10-14T07:37:01.180Z,23.83
2022-10-14T07:39:28.562Z,25.73
2022-10-14T07:41:55.786Z,23.00
2022-10-14T07:44:26.460Z,21.63
2022-10-14T07:46:54.690Z,26.17
2022-10-14T07:49:26.034Z,27.80
2022-10-14T07:51:53.448Z,24.77
2022-10-14T07:54:23.402Z,25.00
2022-10-14T07:56:50.947Z,25.30
2022-10-14T07:59:18.354Z,17.87
2022-10-14T08:01:46.778Z,30.63
2022-10-14T08:04:14.265Z,26.57
2022-10-14T08:06:41.534Z,23.67
2022-10-14T08:09:09.819Z,25.87
2022-10-14T08:11:38.455Z,20.80
2022-10-14T08:14:05.762Z,23.77
2022-10-14T08:16:33.894Z,21.80
2022-10-14T08:19:02.092Z,16.43
2022-10-14T08:53:23.285Z,12.13
2022-10-14T08:55:52.241Z,10.90
2022-10-14T08:58:21.427Z,9.73
2022-10-14T09:00:51.211Z,11.73
2022-10-14T09:03:20.699Z,10.17
2022-10-14T09:05:51.861Z,10.63
2022-10-14T09:08:34.650Z,11.73
2022-10-14T09:11:08.318Z,8.63
2022-10-14T09:13:36.973Z,10.60
2022-10-14T09:16:07.042Z,13.13
2022-10-14T09:18:37.274Z,12.83
2022-10-14T09:21:40.667Z,13.50
2022-10-14T09:24:13.480Z,11.50
2022-10-14T09:26:43.220Z,14.50
2022-10-14T09:29:19.731Z,10.70
2022-10-14T09:31:47.687Z,11.40
2022-10-14T09:34:17.427Z,11.23
2022-10-14T09:36:48.368Z,12.20
2022-10-14T09:39:15.995Z,12.53
2022-10-14T09:41:45.567Z,16.23
2022-10-14T09:44:30.750Z,11.97
2022-10-14T09:46:58.957Z,11.23
2022-10-14T09:49:32.314Z,12.23
2022-10-14T09:51:59.580Z,10.37
2022-10-14T09:54:28.893Z,12.00
2022-10-14T09:57:03.059Z,12.23
2022-10-14T09:59:30.451Z,12.20
2022-10-14T10:01:58.534Z,12.83
2022-10-14T10:04:27.838Z,12.87
2022-10-14T10:06:55.953Z,12.00
2022-10-14T10:09:23.301Z,11.77
2022-10-14T10:11:50.628Z,12.73
2022-10-14T10:14:23.041Z,12.83
2022-10-14T10:19:26.594Z,13.10
2022-10-14T10:21:53.933Z,12.00
2022-10-14T10:24:24.898Z,11.63
2022-10-14T10:41:00.335Z,11.67
2022-10-14T10:44:01.816Z,12.57
2022-10-14T10:46:35.464Z,15.00
2022-10-14T10:49:05.807Z,14.23
2022-10-14T10:51:36.975Z,15.90
2022-10-14T10:54:07.822Z,15.00
2022-10-14T10:56:40.724Z,15.10
2022-10-14T10:59:20.816Z,15.07
2022-10-14T11:01:50.809Z,16.40
2022-10-14T11:04:22.974Z,13.03
2022-10-14T11:06:54.707Z,11.60
2022-10-14T11:09:27.376Z,9.70
2022-10-14T11:12:01.076Z,11.40
2022-10-14T11:14:41.295Z,14.50
2022-10-14T11:17:12.125Z,14.03
2022-10-14T11:19:44.645Z,14.80
2022-10-14T11:22:17.215Z,8.60
2022-10-14T11:24:50.259Z,7.60
2022-10-14T11:27:25.021Z,7.13
2022-10-14T11:30:04.377Z,10.77
2022-10-14T11:32:36.230Z,5.50
2022-10-14T11:35:13.049Z,5.27
2022-10-14T11:37:44.075Z,4.30
2022-10-14T11:40:18.893Z,4.87
2022-10-14T11:42:54.234Z,4.03
2022-10-14T11:45:32.459Z,5.43
2022-10-14T11:48:04.853Z,4.73
2022-10-14T11:50:37.047Z,4.30
2022-10-14T11:53:09.034Z,7.73
2022-10-14T11:55:38.893Z,4.07
2022-10-14T11:58:11.319Z,3.57
2022-10-14T12:00:42.832Z,5.07
2022-10-14T12:03:13.922Z,5.00
2022-10-14T12:05:44.309Z,4.50
2022-10-14T12:08:17.590Z,4.47
2022-10-14T12:10:46.318Z,2.37
2022-10-14T12:13:17.549Z,3.27
2022-10-14T12:15:47.887Z,4.17
2022-10-14T12:18:15.431Z,2.03
2022-10-14T12:20:47.246Z,2.77
2022-10-14T12:23:16.371Z,2.63
2022-10-14T12:25:49.442Z,3.03
2022-10-14T12:28:19.745Z,2.57
2022-10-14T12:30:47.204Z,4.03
2022-10-14T12:33:20.115Z,4.47
2022-10-14T12:35:57.019Z,4.10
2022-10-14T12:38:24.245Z,2.53
2022-10-14T12:40:51.464Z,3.53
2022-10-14T12:43:21.645Z,4.83
2022-10-14T12:45:51.699Z,2.67
2022-10-14T12:48:21.094Z,6.50
2022-10-14T12:50:49.373Z,3.93
2022-10-14T12:53:20.792Z,2.53
2022-10-14T12:55:50.149Z,3.13
2022-10-14T12:58:23.690Z,4.23
2022-10-14T13:00:54.292Z,2.10
2022-10-14T13:03:24.418Z,3.37
2022-10-14T13:05:52.416Z,2.50
2022-10-14T13:08:29.297Z,2.30
2022-10-14T13:11:09.634Z,2.20
2022-10-14T13:14:00.994Z,2.87
2022-10-14T13:16:46.879Z,2.70
2022-10-14T13:19:39.031Z,2.30
2022-10-14T13:22:28.550Z,3.90
2022-10-14T13:25:02.366Z,2.77
2022-10-14T13:27:34.608Z,2.63
2022-10-14T13:30:04.051Z,1.87
2022-10-14T13:32:34.549Z,1.70
2022-10-14T13:35:06.685Z,2.87
2022-10-14T13:37:35.405Z,3.10
2022-10-14T13:40:13.071Z,2.50
2022-10-14T13:42:40.445Z,3.40
2022-10-14T13:45:13.507Z,2.03
2022-10-14T13:47:42.114Z,4.00
2022-10-14T13:50:12.153Z,6.23
2022-10-14T13:52:39.866Z,2.33
2022-10-14T13:55:13.585Z,3.40
2022-10-14T13:58:11.009Z,2.30
2022-10-14T14:00:41.824Z,4.57
2022-10-14T14:03:15.876Z,1.70
2022-10-14T14:05:44.472Z,2.10
2022-10-14T14:11:16.164Z,3.67
2022-10-14T14:13:53.240Z,2.90
2022-10-14T14:16:24.490Z,3.47
2022-10-14T14:19:03.826Z,2.60
2022-10-14T14:21:36.771Z,4.23
2022-10-14T14:24:09.390Z,2.40
2022-10-14T14:26:37.177Z,2.47
2022-10-14T14:29:05.469Z,2.20
2022-10-14T14:32:05.151Z,2.77
2022-10-14T14:34:23.643Z,3.00
2022-10-14T14:36:55.694Z,2.57
2022-10-14T14:39:31.130Z,2.63
2022-10-14T14:41:59.407Z,3.07
2022-10-14T14:44:27.736Z,2.90
2022-10-14T14:46:57.457Z,4.77
2022-10-14T14:49:27.822Z,1.70
2022-10-14T14:51:57.114Z,2.90
2022-10-14T14:54:24.438Z,3.90
2022-10-14T14:56:54.622Z,2.00
2022-10-14T14:59:29.454Z,4.23
2022-10-14T15:01:57.574Z,2.20
2022-10-14T15:04:33.174Z,2.17
2022-10-14T15:07:02.902Z,2.33
2022-10-14T15:09:34.423Z,2.27
2022-10-14T15:12:02.118Z,2.47
2022-10-14T15:14:32.627Z,1.83
2022-10-14T15:17:02.071Z,3.93
2022-10-14T15:19:38.212Z,3.50
2022-10-14T15:22:29.615Z,2.20
2022-10-14T15:25:17.157Z,4.83
2022-10-14T15:28:28.048Z,3.70
2022-10-14T15:30:55.327Z,2.57
2022-10-14T15:33:23.390Z,4.43
2022-10-14T15:35:54.825Z,5.40
2022-10-14T15:38:23.655Z,2.33
2022-10-14T15:40:51.336Z,6.27
2022-10-14T15:43:21.954Z,3.20
2022-10-14T15:45:50.242Z,2.73
2022-10-14T15:48:19.805Z,2.30
2022-10-14T15:50:47.939Z,4.23
2022-10-14T15:53:15.607Z,3.10
2022-10-14T15:55:45.973Z,3.03
2022-10-14T15:58:13.283Z,4.67
2022-10-14T16:00:40.494Z,4.10
2022-10-14T16:03:07.878Z,4.67
2022-10-14T16:05:35.067Z,2.67
2022-10-14T16:08:06.269Z,4.23
2022-10-14T16:10:34.465Z,3.53
2022-10-14T16:13:03.498Z,6.83
2022-10-14T16:15:32.930Z,2.73
2022-10-14T16:18:00.315Z,2.80
2022-10-14T16:20:27.535Z,2.37
2022-10-14T16:22:55.079Z,4.10
2022-10-14T16:25:25.130Z,2.70
2022-10-14T16:27:55.807Z,7.50
2022-10-14T16:30:31.595Z,3.37
2022-10-14T16:32:58.955Z,3.20
2022-10-14T16:35:26.326Z,4.17
2022-10-14T16:37:53.658Z,4.13
2022-10-14T16:40:20.931Z,7.77
2022-10-14T16:42:48.213Z,4.33
2022-10-14T16:45:15.879Z,4.37
2022-10-14T16:47:44.629Z,4.97
2022-10-14T16:50:12.098Z,4.33
2022-10-14T16:52:39.539Z,5.30
2022-10-14T16:55:08.543Z,4.07
2022-10-14T16:57:47.650Z,4.53
2022-10-14T17:00:15.639Z,6.83
2022-10-14T17:02:43.007Z,4.63
2022-10-14T17:05:11.685Z,5.27
2022-10-14T17:07:38.886Z,8.80
2022-10-14T17:10:06.697Z,7.70
2022-10-14T17:12:33.894Z,4.97
2022-10-14T17:15:01.231Z,6.33
2022-10-14T17:17:28.415Z,6.70
2022-10-14T17:19:55.643Z,7.73
2022-10-14T17:22:24.586Z,5.27
2022-10-14T17:24:52.112Z,6.93
2022-10-14T17:27:19.286Z,4.93
2022-10-14T17:29:47.334Z,9.47
2022-10-14T17:32:14.518Z,8.53
2022-10-14T17:34:41.714Z,5.87
2022-10-14T17:39:42.517Z,6.67
2022-10-14T17:42:09.708Z,6.67
2022-10-14T17:44:40.105Z,6.93
2022-10-14T17:47:10.885Z,6.50
2022-10-14T17:49:38.232Z,7.67
2022-10-14T17:52:05.442Z,7.73
2022-10-14T17:54:32.676Z,8.00
2022-10-14T17:57:01.206Z,8.27
2022-10-14T17:59:28.398Z,8.47
2022-10-14T18:02:03.871Z,8.40
2022-10-14T18:04:31.632Z,10.40
2022-10-14T18:06:58.920Z,9.90
2022-10-14T18:09:26.105Z,9.00
2022-10-14T18:12:08.225Z,10.10
2022-10-14T18:14:38.726Z,11.23
2022-10-14T18:17:05.923Z,16.00
2022-10-14T18:19:33.472Z,12.90
2022-10-14T18:22:00.830Z,12.60
2022-10-14T18:24:28.159Z,17.13
2022-10-14T18:26:55.338Z,11.80
2022-10-14T18:29:24.052Z,11.40
2022-10-14T18:34:19.705Z,12.27
2022-10-14T18:36:46.891Z,12.77
2022-10-14T18:39:14.081Z,10.80
2022-10-14T18:41:41.326Z,12.03
2022-10-14T18:44:08.498Z,12.67
2022-10-14T18:46:36.769Z,12.97
2022-10-14T18:49:06.061Z,8.50
2022-10-14T18:51:34.126Z,13.97
2022-10-14T18:54:02.521Z,11.07
2022-10-14T18:56:30.707Z,11.77
2022-10-14T18:58:58.838Z,13.17
2022-10-14T19:01:26.513Z,12.97
2022-10-14T19:03:54.381Z,17.70
2022-10-14T19:06:23.373Z,12.00
2022-10-14T19:08:51.076Z,13.53
2022-10-14T19:11:19.018Z,12.17
2022-10-14T19:13:53.794Z,13.00
2022-10-14T19:16:22.986Z,12.90
2022-10-14T19:18:52.504Z,11.37
2022-10-14T19:21:19.791Z,10.50
2022-10-14T19:23:48.470Z,16.43
2022-10-14T19:28:49.212Z,19.30
2022-10-14T19:31:17.449Z,13.87
2022-10-14T19:33:45.481Z,15.27
2022-10-14T19:36:13.527Z,15.47
2022-10-14T19:38:40.872Z,12.07
2022-10-14T19:41:09.478Z,13.43
2022-10-14T19:43:36.782Z,13.57
2022-10-14T19:46:05.802Z,12.90
2022-10-14T19:48:33.083Z,13.10
2022-10-14T19:51:06.010Z,13.37
2022-10-14T19:53:34.385Z,14.10
2022-10-14T19:56:04.955Z,15.07
2022-10-14T19:58:33.636Z,16.13
2022-10-14T20:01:08.903Z,15.03
2022-10-14T20:03:46.035Z,14.97
2022-10-14T20:06:13.746Z,14.27
2022-10-14T20:08:41.270Z,19.83
2022-10-14T20:11:09.631Z,16.50
2022-10-14T20:13:38.273Z,13.57
2022-10-14T20:16:06.602Z,14.67
2022-10-14T20:18:34.042Z,12.33
2022-10-14T20:21:01.486Z,12.60
2022-10-14T20:23:28.792Z,13.10
2022-10-14T20:26:00.241Z,12.13
2022-10-14T20:28:30.438Z,11.93
2022-10-14T20:30:59.405Z,14.37
2022-10-14T20:33:26.613Z,13.90
2022-10-14T20:36:00.183Z,11.40
2022-10-14T20:38:27.597Z,14.17
2022-10-14T20:40:54.811Z,12.97
2022-10-14T20:43:22.055Z,14.43
2022-10-14T20:45:49.291Z,11.20
2022-10-14T20:48:18.023Z,10.77
2022-10-14T20:50:45.282Z,10.50
2022-10-14T20:53:12.534Z,10.60
2022-10-14T20:55:39.766Z,10.27
2022-10-14T20:58:08.079Z,10.40
2022-10-14T21:00:35.618Z,13.77
2022-10-14T21:03:02.822Z,13.20
2022-10-14T21:05:31.406Z,10.17
2022-10-14T21:07:58.623Z,12.43
2022-10-14T21:10:25.825Z,13.57
2022-10-14T21:12:53.102Z,12.17
2022-10-14T21:15:20.334Z,14.17
2022-10-14T21:17:48.049Z,13.73
2022-10-14T21:20:15.454Z,13.33
2022-10-14T21:22:44.051Z,12.90
2022-10-14T21:25:11.271Z,14.57
2022-10-14T21:27:40.039Z,11.37
2022-10-14T21:30:13.278Z,13.60
2022-10-14T21:32:40.615Z,17.27
2022-10-14T21:35:08.421Z,15.50
2022-10-14T21:37:35.648Z,14.83
2022-10-14T21:40:04.423Z,17.33
2022-10-14T21:42:31.777Z,15.77
2022-10-14T21:44:59.266Z,16.03
2022-10-14T22:18:20.498Z,18.07
2022-10-14T22:20:47.794Z,19.37
2022-10-14T22:23:15.001Z,24.10
2022-10-14T22:25:42.203Z,19.77
2022-10-14T22:28:09.550Z,20.37
2022-10-14T22:30:36.860Z,20.50
2022-10-14T22:35:33.426Z,16.40
2022-10-14T22:38:00.611Z,20.60
2022-10-14T22:40:27.853Z,21.87
2022-10-14T22:42:56.201Z,20.23
2022-10-14T22:45:27.822Z,22.70
2022-10-14T22:47:55.042Z,22.50
2022-10-14T22:50:22.295Z,19.90
2022-10-14T22:52:50.882Z,21.13
2022-10-14T22:55:18.230Z,21.80
2022-10-14T22:57:45.501Z,20.03
2022-10-14T23:00:14.770Z,23.20
2022-10-14T23:02:42.145Z,21.30
2022-10-14T23:05:09.826Z,20.10
2022-10-14T23:07:37.343Z,24.40
2022-10-14T23:10:06.526Z,20.70
2022-10-14T23:12:39.330Z,18.07
2022-10-14T23:15:14.782Z,40.67
2022-10-14T23:17:42.099Z,20.37
2022-10-14T23:20:10.223Z,18.63
2022-10-14T23:22:37.437Z,19.20
2022-10-14T23:25:06.618Z,17.97
2022-10-14T23:27:36.221Z,23.30
2022-10-14T23:30:04.063Z,21.50
2022-10-14T23:32:31.318Z,18.20
2022-10-14T23:34:58.570Z,18.33
2022-10-14T23:37:26.188Z,20.20
2022-10-14T23:39:53.669Z,19.87
2022-10-14T23:42:22.575Z,19.77
2022-10-14T23:44:49.834Z,23.53
2022-10-14T23:47:17.056Z,21.67
2022-10-14T23:49:44.438Z,20.53
2022-10-14T23:52:11.639Z,20.33
2022-10-14T23:54:38.827Z,20.30
2022-10-14T23:57:06.168Z,20.27
2022-10-14T23:59:34.722Z,20.80
